Time;durP1;ratioP1;P1;durP2;ratioP2;P2;SDS_P1;SDS_P2;PMS_P1;PMS_P2;Temp;Humidity;BMP_temperature;BMP_pressure;BME280_temperature;BME280_humidity;BME280_pressure;Samples;Min_cycle;Max_cycle;Signal;HPM_P1;HPM_P2
2022/03/16 00:02:07;;;;;;;6.43;3.75;;;17.80;60.80;;;;;;5114685;28;20506;-78
2022/03/16 00:04:33;;;;;;;4.80;3.17;;;17.80;60.80;;;;;;5114541;28;20042;-77
2022/03/16 00:06:59;;;;;;;6.60;3.25;;;17.80;60.80;;;;;;5114922;28;20020;-77
2022/03/16 00:09:24;;;;;;;6.25;3.00;;;17.80;60.90;;;;;;5113848;28;20035;-79
2022/03/16 00:11:50;;;;;;;5.88;3.00;;;17.70;60.90;;;;;;5114571;28;20044;-77
2022/03/16 00:14:16;;;;;;;4.20;2.67;;;17.70;60.90;;;;;;5114637;28;20099;-77
2022/03/16 00:16:42;;;;;;;6.07;3.30;;;17.70;60.90;;;;;;5114093;28;20031;-77
2022/03/16 00:19:07;;;;;;;5.13;3.17;;;17.70;61.00;;;;;;5114120;28;20023;-77
2022/03/16 00:21:34;;;;;;;4.95;2.67;;;17.70;61.10;;;;;;5114262;28;20386;-78
2022/03/16 00:24:00;;;;;;;5.32;2.80;;;17.60;61.00;;;;;;5113019;28;20024;-77
2022/03/16 00:26:27;;;;;;;6.70;3.00;;;17.60;61.10;;;;;;5114616;28;20042;-77
2022/03/16 00:28:52;;;;;;;4.50;2.40;;;17.60;61.10;;;;;;5113869;28;20122;-76
2022/03/16 00:31:18;;;;;;;4.90;3.00;;;17.60;61.10;;;;;;5114029;28;20059;-77
2022/03/16 00:33:44;;;;;;;5.35;2.92;;;17.60;61.10;;;;;;5113741;28;20028;-77
2022/03/16 00:36:09;;;;;;;4.97;2.40;;;17.60;61.10;;;;;;5114328;28;20020;-77
2022/03/16 00:38:35;;;;;;;4.43;2.78;;;17.60;61.10;;;;;;5113955;28;20068;-77
2022/03/16 00:41:02;;;;;;;4.70;3.13;;;17.50;61.10;;;;;;5114167;28;20099;-77
2022/03/16 00:43:27;;;;;;;5.32;2.92;;;17.50;61.10;;;;;;5100829;28;20103;-76
2022/03/16 00:45:53;;;;;;;3.92;2.55;;;17.50;61.10;;;;;;5093136;28;20103;-77
2022/03/16 00:48:19;;;;;;;4.25;2.80;;;17.50;61.10;;;;;;5093129;28;20029;-77
2022/03/16 00:50:45;;;;;;;4.20;2.70;;;17.50;62.00;;;;;;5093200;28;20483;-77
2022/03/16 00:53:10;;;;;;;4.50;2.78;;;17.50;63.70;;;;;;5093447;28;20077;-77
2022/03/16 00:55:36;;;;;;;4.95;2.85;;;17.50;63.80;;;;;;5093202;28;20107;-77
2022/03/16 00:58:02;;;;;;;6.28;2.92;;;17.50;64.30;;;;;;5093453;28;20111;-78
2022/03/16 01:00:28;;;;;;;3.90;2.17;;;17.50;64.40;;;;;;5093517;28;20024;-79
2022/03/16 01:02:55;;;;;;;5.25;2.95;;;17.50;64.70;;;;;;5093471;28;20376;-78
2022/03/16 01:05:21;;;;;;;5.38;3.20;;;17.50;65.10;;;;;;5093210;28;20012;-77
2022/03/16 01:07:47;;;;;;;4.13;2.40;;;17.50;65.20;;;;;;5091670;28;20031;-76
2022/03/16 01:10:13;;;;;;;5.65;2.78;;;17.40;65.40;;;;;;5093116;28;20430;-78
2022/03/16 01:12:39;;;;;;;4.05;2.42;;;17.40;65.40;;;;;;5092737;28;20028;-77
2022/03/16 01:15:06;;;;;;;3.97;2.30;;;17.40;65.30;;;;;;5093129;28;20446;-77
2022/03/16 01:17:32;;;;;;;5.65;2.50;;;17.40;65.30;;;;;;5092523;28;20426;-77
2022/03/16 01:19:58;;;;;;;5.78;3.08;;;17.40;65.20;;;;;;5093319;28;20016;-76
2022/03/16 01:22:24;;;;;;;4.22;2.75;;;17.40;65.30;;;;;;5093054;28;20073;-77
2022/03/16 01:24:49;;;;;;;3.75;2.58;;;17.40;65.30;;;;;;5092568;28;20531;-77
2022/03/16 01:27:15;;;;;;;4.63;2.00;;;17.40;65.20;;;;;;5091554;28;20115;-77
2022/03/16 01:29:41;;;;;;;4.20;2.40;;;17.40;65.20;;;;;;5092179;28;20040;-76
2022/03/16 01:32:07;;;;;;;4.80;2.40;;;17.30;65.00;;;;;;5092206;28;20024;-77
2022/03/16 01:34:34;;;;;;;3.92;2.40;;;17.30;65.10;;;;;;5092253;28;20016;-77
2022/03/16 01:37:00;;;;;;;3.17;2.15;;;17.30;65.10;;;;;;5092563;28;20020;-76
2022/03/16 01:39:26;;;;;;;3.38;2.10;;;17.30;65.00;;;;;;5092940;28;20028;-77
2022/03/16 01:41:52;;;;;;;3.70;2.42;;;17.30;65.00;;;;;;5092341;28;20024;-77
2022/03/16 01:44:37;;;;;;;3.35;2.53;;;17.30;65.00;;;;;;5112205;28;20028;-77
2022/03/16 01:47:03;;;;;;;3.60;2.53;;;17.30;65.00;;;;;;5112606;28;20023;-78
2022/03/16 01:49:29;;;;;;;3.30;2.20;;;17.30;65.00;;;;;;5111173;28;20036;-78
2022/03/16 01:51:55;;;;;;;5.10;3.15;;;17.30;65.00;;;;;;5112944;28;20027;-78
2022/03/16 01:54:20;;;;;;;4.40;2.53;;;17.20;64.60;;;;;;5112429;28;20027;-77
2022/03/16 01:56:46;;;;;;;3.78;2.50;;;17.30;64.10;;;;;;5112549;28;20028;-77
2022/03/16 01:59:11;;;;;;;3.55;2.10;;;17.20;63.90;;;;;;5111246;28;20031;-77
2022/03/16 02:01:37;;;;;;;4.15;2.22;;;17.30;63.90;;;;;;5111061;28;20035;-77
2022/03/16 02:04:03;;;;;;;4.80;2.60;;;17.30;63.90;;;;;;5112589;28;20053;-77
2022/03/16 02:06:28;;;;;;;4.20;2.70;;;17.30;63.80;;;;;;5112860;28;20072;-78
2022/03/16 02:08:54;;;;;;;3.47;2.42;;;17.30;63.80;;;;;;5112736;28;20119;-77
2022/03/16 02:11:21;;;;;;;3.55;2.17;;;17.30;63.60;;;;;;5111034;28;20028;-77
2022/03/16 02:13:47;;;;;;;4.78;2.45;;;17.30;63.60;;;;;;5110534;28;20024;-77
2022/03/16 02:16:13;;;;;;;4.47;2.63;;;17.30;63.60;;;;;;5112328;28;20027;-77
2022/03/16 02:18:38;;;;;;;4.88;2.25;;;17.30;63.50;;;;;;5112121;28;20016;-78
2022/03/16 02:21:06;;;;;;;3.72;2.55;;;17.30;63.40;;;;;;5111967;28;20050;-77
2022/03/16 02:23:32;;;;;;;3.55;1.98;;;17.30;63.20;;;;;;5111694;28;20020;-77
2022/03/16 02:25:58;;;;;;;4.53;2.22;;;17.30;63.20;;;;;;5112229;28;20031;-77
2022/03/16 02:28:25;;;;;;;3.38;2.25;;;17.30;63.10;;;;;;5112277;28;20124;-77
2022/03/16 02:30:52;;;;;;;3.30;2.50;;;17.30;63.10;;;;;;5111719;28;20020;-77
2022/03/16 02:33:18;;;;;;;3.60;2.42;;;17.30;62.90;;;;;;5111938;28;20024;-77
2022/03/16 02:35:43;;;;;;;3.58;2.45;;;17.40;63.00;;;;;;5111749;28;20391;-77
2022/03/16 02:38:09;;;;;;;4.07;1.80;;;17.30;62.80;;;;;;5111929;28;20024;-77
2022/03/16 02:40:35;;;;;;;4.47;2.40;;;17.30;62.70;;;;;;5111563;28;20433;-78
2022/03/16 02:43:02;;;;;;;5.90;2.47;;;17.30;62.70;;;;;;5101501;28;20050;-76
2022/03/16 02:45:27;;;;;;;3.85;2.45;;;17.30;62.70;;;;;;5091837;28;20099;-77
2022/03/16 02:47:53;;;;;;;3.03;1.98;;;17.30;62.60;;;;;;5091042;28;20514;-78
2022/03/16 02:50:19;;;;;;;3.38;2.10;;;17.30;62.60;;;;;;5091259;28;20028;-76
2022/03/16 02:52:46;;;;;;;4.72;2.50;;;17.30;62.50;;;;;;5091242;28;20021;-77
2022/03/16 02:55:13;;;;;;;4.13;2.30;;;17.30;62.50;;;;;;5091304;28;20081;-77
2022/03/16 02:57:39;;;;;;;3.20;2.28;;;17.30;62.50;;;;;;5089789;28;20099;-77
2022/03/16 03:00:07;;;;;;;3.35;2.10;;;17.30;62.50;;;;;;5091213;28;20024;-78
2022/03/16 03:02:32;;;;;;;4.18;2.45;;;17.40;62.50;;;;;;5090939;28;20020;-77
2022/03/16 03:04:58;;;;;;;6.85;2.38;;;17.40;62.50;;;;;;5091254;28;20368;-77
2022/03/16 03:07:24;;;;;;;3.78;2.40;;;17.40;62.50;;;;;;5091415;28;20028;-77
2022/03/16 03:09:50;;;;;;;4.13;2.00;;;17.40;62.40;;;;;;5090548;28;20036;-78
2022/03/16 03:12:16;;;;;;;2.90;1.90;;;17.40;63.10;;;;;;5091152;28;20032;-77
2022/03/16 03:14:41;;;;;;;3.95;2.58;;;17.40;62.30;;;;;;5090810;28;20036;-78
2022/03/16 03:17:07;;;;;;;4.03;2.30;;;17.40;62.40;;;;;;5091049;28;20024;-77
2022/03/16 03:19:33;;;;;;;3.10;1.92;;;17.40;62.40;;;;;;5090899;28;20024;-77
2022/03/16 03:21:58;;;;;;;2.85;1.98;;;17.40;62.40;;;;;;5091151;28;20032;-76
2022/03/16 03:24:24;;;;;;;3.53;2.10;;;17.40;62.40;;;;;;5090899;28;20514;-77
2022/03/16 03:26:50;;;;;;;3.95;2.25;;;17.40;62.30;;;;;;5090786;28;20052;-78
2022/03/16 03:29:16;;;;;;;2.92;1.92;;;17.40;62.30;;;;;;5090867;28;20119;-77
2022/03/16 03:31:42;;;;;;;4.55;2.40;;;17.40;62.20;;;;;;5089491;28;20024;-78
2022/03/16 03:34:08;;;;;;;4.25;1.98;;;17.40;62.30;;;;;;5090869;28;20111;-78
2022/03/16 03:36:33;;;;;;;3.08;1.92;;;17.40;62.30;;;;;;5090508;28;20099;-77
2022/03/16 03:38:59;;;;;;;3.17;2.45;;;17.40;62.20;;;;;;5090878;28;20386;-76
2022/03/16 03:41:25;;;;;;;3.35;2.15;;;17.40;62.30;;;;;;5091187;28;20035;-77
2022/03/16 03:43:51;;;;;;;3.15;2.05;;;17.40;62.30;;;;;;5106679;28;20095;-78
2022/03/16 03:46:16;;;;;;;3.05;1.88;;;17.40;62.20;;;;;;5111209;28;20024;-78
2022/03/16 03:48:42;;;;;;;2.60;1.80;;;17.40;62.10;;;;;;5109636;28;20036;-77
2022/03/16 03:51:08;;;;;;;3.50;2.20;;;17.40;62.20;;;;;;5109662;28;20028;-76
2022/03/16 03:53:34;;;;;;;3.72;2.30;;;17.40;62.10;;;;;;5111099;28;20024;-77
2022/03/16 03:55:59;;;;;;;2.60;1.75;;;17.40;62.00;;;;;;5113532;28;20045;-76
2022/03/16 03:58:25;;;;;;;2.60;1.90;;;17.40;62.00;;;;;;5115157;28;20475;-77
2022/03/16 04:00:51;;;;;;;3.53;2.42;;;17.40;62.00;;;;;;5114677;28;20032;-78
2022/03/16 04:03:16;;;;;;;3.33;2.17;;;17.40;62.00;;;;;;5114707;28;20501;-77
2022/03/16 04:05:42;;;;;;;4.05;2.20;;;17.40;61.90;;;;;;5114345;28;20030;-77
2022/03/16 04:08:08;;;;;;;3.97;2.22;;;17.40;61.90;;;;;;5114404;28;20036;-78
2022/03/16 04:10:36;;;;;;;4.53;2.40;;;17.40;61.90;;;;;;5114468;28;20036;-77
2022/03/16 04:13:02;;;;;;;2.60;2.00;;;17.40;61.90;;;;;;5114607;28;20115;-77
2022/03/16 04:15:29;;;;;;;2.90;2.08;;;17.40;61.80;;;;;;5113524;28;20030;-77
2022/03/16 04:17:54;;;;;;;3.17;2.35;;;17.50;61.90;;;;;;5114808;28;20016;-77
2022/03/16 04:20:20;;;;;;;5.28;2.42;;;17.40;61.90;;;;;;5114579;28;20399;-78
2022/03/16 04:22:46;;;;;;;4.07;2.78;;;17.40;61.80;;;;;;5113996;28;20486;-77
2022/03/16 04:25:11;;;;;;;3.65;2.42;;;17.50;61.90;;;;;;5114344;28;20031;-77
2022/03/16 04:27:37;;;;;;;4.05;2.47;;;17.40;61.80;;;;;;5114067;28;20024;-77
2022/03/16 04:30:03;;;;;;;3.65;2.13;;;17.50;61.80;;;;;;5114070;28;20043;-77
2022/03/16 04:32:29;;;;;;;3.20;2.40;;;17.50;61.90;;;;;;5113870;28;20399;-76
2022/03/16 04:34:55;;;;;;;3.95;2.40;;;17.50;62.60;;;;;;5112998;28;20027;-77
2022/03/16 04:37:20;;;;;;;3.47;2.17;;;17.50;61.80;;;;;;5114199;28;20019;-76
2022/03/16 04:39:46;;;;;;;3.05;2.40;;;17.50;61.70;;;;;;5113592;28;20498;-77
2022/03/16 04:42:12;;;;;;;4.10;2.47;;;17.50;61.70;;;;;;5111528;28;20042;-76
2022/03/16 04:44:37;;;;;;;3.75;2.20;;;17.50;61.60;;;;;;5093489;28;20388;-78
2022/03/16 04:47:03;;;;;;;4.88;2.40;;;17.50;61.50;;;;;;5093410;28;20020;-77
2022/03/16 04:49:29;;;;;;;3.25;2.30;;;17.50;61.50;;;;;;5091764;28;20039;-76
2022/03/16 04:51:54;;;;;;;4.13;2.67;;;17.50;61.50;;;;;;5093814;28;20016;-78
2022/03/16 04:54:20;;;;;;;2.90;2.30;;;17.50;61.40;;;;;;5093432;28;20024;-77
2022/03/16 04:56:46;;;;;;;3.95;2.38;;;17.60;61.40;;;;;;5093180;28;20016;-76
2022/03/16 04:59:12;;;;;;;4.75;3.17;;;17.50;61.30;;;;;;5093453;28;20016;-77
2022/03/16 05:01:38;;;;;;;3.90;2.58;;;17.60;61.40;;;;;;5093018;28;20052;-76
2022/03/16 05:04:03;;;;;;;4.22;2.63;;;17.50;61.40;;;;;;5093307;28;20081;-77
2022/03/16 05:06:29;;;;;;;4.25;2.72;;;17.60;61.40;;;;;;5090527;28;20107;-76
2022/03/16 05:08:55;;;;;;;4.18;3.03;;;17.50;61.30;;;;;;5093431;28;20038;-76
2022/03/16 05:11:22;;;;;;;3.65;2.63;;;17.50;61.30;;;;;;5093050;28;20053;-77
2022/03/16 05:13:48;;;;;;;4.50;3.08;;;17.50;61.30;;;;;;5092917;28;20075;-77
2022/03/16 05:16:14;;;;;;;3.67;2.80;;;17.50;61.30;;;;;;5093062;28;20016;-76
2022/03/16 05:18:43;;;;;;;4.47;3.15;;;17.60;61.30;;;;;;5092661;28;20437;-77
2022/03/16 05:21:08;;;;;;;4.65;2.95;;;17.60;61.30;;;;;;5092587;28;20016;-77
2022/03/16 05:23:35;;;;;;;5.07;3.13;;;17.50;61.30;;;;;;5092648;28;20028;-77
2022/03/16 05:26:01;;;;;;;4.28;3.13;;;17.60;61.30;;;;;;5092800;28;20028;-78
2022/03/16 05:28:27;;;;;;;5.35;2.80;;;17.60;61.30;;;;;;5092962;28;20069;-77
2022/03/16 05:30:52;;;;;;;5.53;3.47;;;17.50;61.20;;;;;;5092623;28;20031;-77
2022/03/16 05:33:19;;;;;;;5.57;3.22;;;17.60;61.20;;;;;;5092956;28;20396;-77
2022/03/16 05:35:44;;;;;;;4.63;3.13;;;17.50;61.10;;;;;;5092063;28;20040;-76
2022/03/16 05:38:13;;;;;;;4.22;2.75;;;17.50;61.00;;;;;;5092688;28;20053;-77
2022/03/16 05:40:43;;;;;;;7.22;3.30;;;17.60;61.00;;;;;;5092426;28;20028;-77
2022/03/16 05:43:10;;;;;;;5.85;3.70;;;17.50;60.90;;;;;;5092195;28;20529;-77
2022/03/16 05:45:36;;;;;;;6.00;3.80;;;17.60;61.70;;;;;;5092225;28;20114;-77
2022/03/16 05:48:01;;;;;;;6.97;4.05;;;17.60;60.90;;;;;;5092341;28;20064;-78
2022/03/16 05:50:28;;;;;;;5.55;3.72;;;17.60;60.90;;;;;;5090528;28;20055;-76
2022/03/16 05:52:58;;;;;;;7.38;4.00;;;17.60;60.80;;;;;;5087331;28;20020;-76
2022/03/16 05:55:24;;;;;;;4.88;3.80;;;17.60;60.90;;;;;;5086259;28;20547;-78
2022/03/16 05:57:50;;;;;;;7.07;4.45;;;17.60;60.90;;;;;;5086818;28;20102;-76
2022/03/16 06:00:17;;;;;;;6.25;4.35;;;17.60;60.80;;;;;;5086853;28;20023;-76
2022/03/16 06:02:44;;;;;;;5.90;4.15;;;17.50;60.80;;;;;;5085840;28;20131;-77
2022/03/16 06:05:10;;;;;;;6.70;3.78;;;17.50;60.80;;;;;;5088130;28;20016;-77
2022/03/16 06:07:39;;;;;;;4.82;3.40;;;17.60;60.80;;;;;;5086407;28;20064;-76
2022/03/16 06:10:06;;;;;;;5.68;4.10;;;17.60;60.70;;;;;;5089071;28;20449;-78
2022/03/16 06:12:32;;;;;;;5.63;4.13;;;17.60;60.80;;;;;;5091720;28;20024;-76
2022/03/16 06:14:57;;;;;;;6.72;3.97;;;17.50;60.70;;;;;;5091638;28;20020;-77
2022/03/16 06:17:23;;;;;;;6.22;4.35;;;17.60;60.80;;;;;;5091767;28;20020;-78
2022/03/16 06:19:49;;;;;;;6.93;4.38;;;17.60;60.70;;;;;;5091591;28;20476;-78
2022/03/16 06:22:15;;;;;;;6.70;3.97;;;17.50;60.70;;;;;;5091887;28;20433;-78
2022/03/16 06:24:40;;;;;;;6.50;4.18;;;17.60;60.70;;;;;;5091713;28;20090;-76
2022/03/16 06:27:06;;;;;;;6.18;4.40;;;17.60;60.60;;;;;;5091844;28;20460;-77
2022/03/16 06:29:32;;;;;;;6.43;4.07;;;17.60;60.70;;;;;;5091419;28;20040;-78
2022/03/16 06:31:58;;;;;;;5.20;3.85;;;17.60;60.60;;;;;;5091696;28;20024;-77
2022/03/16 06:34:23;;;;;;;5.30;4.00;;;17.60;60.70;;;;;;5095500;28;20483;-77
2022/03/16 06:36:49;;;;;;;5.93;3.75;;;17.60;60.60;;;;;;5111623;28;20028;-78
2022/03/16 06:39:15;;;;;;;6.95;4.15;;;17.60;60.50;;;;;;5099202;28;20027;-77
2022/03/16 06:41:42;;;;;;;6.68;3.90;;;17.50;60.50;;;;;;5092743;28;20072;-77
2022/03/16 06:44:08;;;;;;;5.95;4.22;;;17.50;60.40;;;;;;5096163;28;20021;-78
2022/03/16 06:46:33;;;;;;;7.32;4.35;;;17.60;60.60;;;;;;5089944;28;20028;-77
2022/03/16 06:48:59;;;;;;;7.40;3.53;;;17.60;60.70;;;;;;5090551;28;20066;-78
2022/03/16 06:51:25;;;;;;;5.65;3.35;;;17.60;60.70;;;;;;5091794;28;20012;-77
2022/03/16 06:53:50;;;;;;;5.88;3.85;;;17.60;60.70;;;;;;5091178;28;20051;-77
2022/03/16 06:56:16;;;;;;;9.05;3.90;;;17.60;60.70;;;;;;5091350;28;20020;-77
2022/03/16 06:58:41;;;;;;;7.18;3.78;;;17.60;60.90;;;;;;5091010;28;20028;-77
2022/03/16 07:01:07;;;;;;;5.05;3.28;;;17.60;60.90;;;;;;5090380;28;20055;-76
2022/03/16 07:03:32;;;;;;;6.22;4.25;;;17.60;61.00;;;;;;5090300;28;20030;-79
2022/03/16 07:06:00;;;;;;;8.07;3.85;;;17.60;61.00;;;;;;5091585;28;20089;-78
2022/03/16 07:08:26;;;;;;;6.70;4.03;;;17.60;60.90;;;;;;5091248;28;20036;-78
2022/03/16 07:10:51;;;;;;;13.07;3.45;;;17.60;61.10;;;;;;5090656;28;20108;-77
2022/03/16 07:13:17;;;;;;;5.35;3.35;;;17.70;61.00;;;;;;5091161;28;20032;-80
2022/03/16 07:15:44;;;;;;;6.22;3.70;;;17.60;60.90;;;;;;5088431;28;20025;-78
2022/03/16 07:18:11;;;;;;;6.50;4.18;;;17.60;60.80;;;;;;5078994;28;20024;-77
2022/03/16 07:20:38;;;;;;;6.50;3.30;;;17.60;60.70;;;;;;5089589;28;20031;-76
2022/03/16 07:23:11;;;;;;;5.40;3.28;;;17.60;60.60;;;;;;5090519;28;20024;-75
2022/03/16 07:25:39;;;;;;;4.70;3.42;;;17.60;60.60;;;;;;5078293;28;20102;-75
2022/03/16 07:28:05;;;;;;;6.22;3.60;;;17.60;60.60;;;;;;5089918;28;20382;-78
2022/03/16 07:30:30;;;;;;;6.40;4.13;;;17.60;60.60;;;;;;5094267;28;20035;-76
2022/03/16 07:32:56;;;;;;;9.63;3.67;;;17.60;60.50;;;;;;5094880;28;20024;-77
2022/03/16 07:35:26;;;;;;;4.70;3.25;;;17.60;60.50;;;;;;5094559;28;20073;-77
2022/03/16 07:37:53;;;;;;;5.63;3.60;;;17.60;60.60;;;;;;5094621;28;20412;-77
2022/03/16 07:40:19;;;;;;;5.63;3.28;;;17.60;60.50;;;;;;5094514;28;20348;-78
2022/03/16 07:42:47;;;;;;;6.80;4.03;;;17.60;60.60;;;;;;5092373;28;20073;-77
2022/03/16 07:45:15;;;;;;;5.60;3.17;;;17.60;61.00;;;;;;5092538;28;20028;-76
2022/03/16 07:47:42;;;;;;;4.80;2.92;;;17.60;60.40;;;;;;5090420;28;20035;-78
2022/03/16 07:50:09;;;;;;;5.63;3.58;;;17.60;61.20;;;;;;5093954;28;20046;-77
2022/03/16 07:52:34;;;;;;;6.70;3.30;;;17.60;61.30;;;;;;5093714;28;20024;-78
2022/03/16 07:55:00;;;;;;;7.45;3.35;;;17.60;61.40;;;;;;5093643;28;20039;-77
2022/03/16 07:57:26;;;;;;;8.90;3.72;;;17.70;61.60;;;;;;5094072;28;20016;-77
2022/03/16 07:59:51;;;;;;;4.95;3.25;;;17.70;61.80;;;;;;5093542;28;20388;-79
2022/03/16 08:02:18;;;;;;;6.30;3.53;;;17.70;62.00;;;;;;5094167;28;20032;-78
2022/03/16 08:04:43;;;;;;;5.47;3.05;;;17.70;61.90;;;;;;5093258;28;20067;-78
2022/03/16 08:07:12;;;;;;;6.28;3.13;;;17.70;61.80;;;;;;5094392;28;20441;-78
2022/03/16 08:09:37;;;;;;;5.28;3.33;;;17.70;61.70;;;;;;5094067;28;20372;-78
2022/03/16 08:12:04;;;;;;;5.43;3.47;;;17.70;61.80;;;;;;5094318;28;20030;-77
2022/03/16 08:14:30;;;;;;;5.25;3.60;;;17.70;61.80;;;;;;5091818;28;20487;-79
2022/03/16 08:16:55;;;;;;;4.85;3.30;;;17.70;61.80;;;;;;5093251;28;20032;-79
2022/03/16 08:19:21;;;;;;;9.25;3.13;;;17.70;61.90;;;;;;5092495;28;20028;-79
2022/03/16 08:21:48;;;;;;;5.80;2.90;;;17.70;61.80;;;;;;5093523;28;20016;-78
2022/03/16 08:24:14;;;;;;;5.55;3.15;;;17.70;61.80;;;;;;5094137;28;20153;-79
2022/03/16 08:26:40;;;;;;;6.80;3.35;;;17.70;61.90;;;;;;5092209;28;20028;-76
2022/03/16 08:29:06;;;;;;;7.78;3.45;;;17.70;61.90;;;;;;5093856;28;20486;-77
2022/03/16 08:31:32;;;;;;;6.03;3.40;;;17.60;62.00;;;;;;5093804;28;20099;-78
2022/03/16 08:33:58;;;;;;;5.78;3.42;;;17.70;62.10;;;;;;5093864;28;20048;-77
2022/03/16 08:36:23;;;;;;;5.38;3.40;;;17.60;61.90;;;;;;5093977;28;20054;-78
2022/03/16 08:38:49;;;;;;;6.05;3.35;;;17.60;61.80;;;;;;5093622;28;20416;-77
2022/03/16 08:41:15;;;;;;;4.90;3.05;;;17.70;61.80;;;;;;5092434;28;20123;-77
2022/03/16 08:43:40;;;;;;;6.50;3.50;;;17.60;61.70;;;;;;5093490;28;20025;-77
2022/03/16 08:46:06;;;;;;;5.40;3.28;;;17.70;61.60;;;;;;5093768;28;20055;-77
2022/03/16 08:48:32;;;;;;;5.55;3.20;;;17.70;61.50;;;;;;5093240;28;20502;-79
2022/03/16 08:50:58;;;;;;;4.55;3.15;;;17.70;61.40;;;;;;5092554;28;20024;-78
2022/03/16 08:53:24;;;;;;;5.22;3.20;;;17.60;61.30;;;;;;5092430;28;20016;-77
2022/03/16 08:55:50;;;;;;;6.60;3.15;;;17.70;61.40;;;;;;5093222;28;20434;-79
2022/03/16 08:58:16;;;;;;;4.85;2.72;;;17.70;61.80;;;;;;5093343;28;20045;-77
2022/03/16 09:00:42;;;;;;;5.05;3.30;;;17.60;61.30;;;;;;5092878;28;20077;-77
2022/03/16 09:03:08;;;;;;;5.78;3.17;;;17.70;61.20;;;;;;5092060;28;20110;-77
2022/03/16 09:05:34;;;;;;;5.00;3.33;;;17.70;61.20;;;;;;5093099;28;20024;-77
2022/03/16 09:08:00;;;;;;;4.57;2.88;;;17.70;61.20;;;;;;5092006;28;20016;-79
2022/03/16 09:10:26;;;;;;;5.60;3.42;;;17.70;61.10;;;;;;5092469;28;20031;-77
2022/03/16 09:12:52;;;;;;;6.95;4.38;;;17.70;61.20;;;;;;5091335;28;20030;-76
2022/03/16 09:15:19;;;;;;;4.40;2.80;;;17.70;61.20;;;;;;5091969;28;20381;-77
2022/03/16 09:17:44;;;;;;;6.60;3.58;;;17.60;61.10;;;;;;5092826;28;20028;-77
2022/03/16 09:20:10;;;;;;;5.53;3.30;;;17.60;61.00;;;;;;5093035;28;20027;-77
2022/03/16 09:22:35;;;;;;;4.88;3.55;;;17.60;61.00;;;;;;5092824;28;20483;-76
2022/03/16 09:25:02;;;;;;;5.72;3.15;;;17.70;61.00;;;;;;5092725;28;20488;-77
2022/03/16 09:27:27;;;;;;;4.68;3.40;;;17.60;60.90;;;;;;5093179;28;20558;-78
2022/03/16 09:29:55;;;;;;;5.03;3.10;;;17.60;60.90;;;;;;5092529;28;20119;-76
2022/03/16 09:32:21;;;;;;;4.20;3.00;;;17.70;60.90;;;;;;5092802;28;20523;-76
2022/03/16 09:34:48;;;;;;;5.22;3.33;;;17.70;60.80;;;;;;5092548;28;20020;-76
2022/03/16 09:37:14;;;;;;;5.55;3.42;;;17.60;60.60;;;;;;5091479;28;20028;-77
2022/03/16 09:39:41;;;;;;;5.10;3.70;;;17.70;60.70;;;;;;5091018;28;20054;-77
2022/03/16 09:42:08;;;;;;;3.85;2.97;;;17.60;60.60;;;;;;5092128;28;20391;-76
2022/03/16 09:44:34;;;;;;;4.97;3.35;;;17.70;60.60;;;;;;5091166;28;20036;-76
2022/03/16 09:47:00;;;;;;;5.68;3.30;;;17.70;60.60;;;;;;5092621;28;20451;-78
2022/03/16 09:49:26;;;;;;;4.93;3.60;;;17.70;60.60;;;;;;5091394;28;20035;-77
2022/03/16 09:51:53;;;;;;;5.47;3.03;;;17.70;60.60;;;;;;5091683;28;20031;-77
2022/03/16 09:54:20;;;;;;;5.53;3.45;;;17.60;60.60;;;;;;5091461;28;20506;-77
2022/03/16 09:56:47;;;;;;;5.38;3.38;;;17.60;60.60;;;;;;5090485;28;20099;-78
2022/03/16 09:59:16;;;;;;;4.47;2.97;;;17.60;60.60;;;;;;5091560;28;20024;-79
2022/03/16 10:01:43;;;;;;;4.28;3.28;;;17.70;60.60;;;;;;5091214;28;20043;-77
2022/03/16 10:04:09;;;;;;;5.43;3.55;;;17.60;60.60;;;;;;5091485;28;20020;-76
2022/03/16 10:06:40;;;;;;;5.78;3.45;;;17.60;60.60;;;;;;5090411;28;20032;-76
2022/03/16 10:15:10;;;;;;;4.28;3.13;;;17.60;60.70;;;;;;5090181;28;20148;-77
2022/03/16 10:17:43;;;;;;;5.50;3.38;;;17.60;60.70;;;;;;5087476;28;20016;-77
2022/03/16 10:20:19;;;;;;;6.07;3.30;;;17.60;60.70;;;;;;5090573;28;20441;-77
2022/03/16 10:22:52;;;;;;;5.13;3.17;;;17.60;60.80;;;;;;5091634;28;20043;-77
2022/03/16 10:25:18;;;;;;;6.40;3.10;;;17.50;60.80;;;;;;5090367;28;20024;-77
2022/03/16 10:27:44;;;;;;;4.85;3.10;;;17.50;60.70;;;;;;5090870;28;20065;-76
2022/03/16 10:30:11;;;;;;;6.35;3.85;;;17.60;60.70;;;;;;5091459;28;20070;-77
2022/03/16 10:32:36;;;;;;;4.72;2.90;;;17.50;60.70;;;;;;5089929;28;20032;-77
2022/03/16 10:35:05;;;;;;;7.03;3.40;;;17.60;60.80;;;;;;5090876;28;20031;-77
2022/03/16 10:37:32;;;;;;;4.97;3.30;;;17.60;60.70;;;;;;5089326;28;20024;-78
2022/03/16 10:39:58;;;;;;;5.03;3.17;;;17.50;60.70;;;;;;5091561;28;20050;-77
2022/03/16 10:48:25;;;;;;;5.50;3.30;;;17.50;60.60;;;;;;5091056;28;20101;-78
2022/03/16 10:50:57;;;;;;;5.30;3.20;;;17.50;60.60;;;;;;5091059;28;20055;-79
2022/03/16 10:53:30;;;;;;;4.53;2.70;;;17.60;60.70;;;;;;5091432;28;20496;-79
2022/03/16 10:55:59;;;;;;;5.25;3.10;;;17.50;60.70;;;;;;5091699;28;20114;-78
2022/03/16 10:58:26;;;;;;;3.70;2.95;;;17.50;60.60;;;;;;5091574;28;20024;-78
2022/03/16 11:00:52;;;;;;;5.78;3.47;;;17.50;60.70;;;;;;5091004;28;20070;-79
2022/03/16 11:03:22;;;;;;;4.32;3.42;;;17.50;60.60;;;;;;5090168;28;20024;-77
2022/03/16 11:05:48;;;;;;;4.65;2.70;;;17.50;60.60;;;;;;5091021;28;20032;-78
2022/03/16 11:08:15;;;;;;;4.75;3.33;;;17.60;60.70;;;;;;5089833;28;20032;-76
2022/03/16 11:10:42;;;;;;;6.07;3.60;;;17.60;60.70;;;;;;5090992;28;20087;-78
2022/03/16 11:15:56;;;;;;;4.65;3.45;;;17.60;60.60;;;;;;5087892;28;20080;-77
2022/03/16 11:18:25;;;;;;;5.38;3.35;;;17.60;60.60;;;;;;5089413;28;20032;-76
2022/03/16 11:20:56;;;;;;;4.53;2.92;;;17.50;60.50;;;;;;5088582;28;20507;-76
2022/03/16 11:26:34;;;;;;;6.32;3.47;;;17.50;60.50;;;;;;5091014;28;20178;-78
2022/03/16 11:29:02;;;;;;;4.10;3.20;;;17.50;60.50;;;;;;5091153;28;20036;-77
2022/03/16 11:31:31;;;;;;;5.35;3.47;;;17.50;60.50;;;;;;5091317;28;20026;-77
2022/03/16 11:33:59;;;;;;;7.18;3.80;;;17.50;60.60;;;;;;5089914;28;20039;-77
2022/03/16 11:36:32;;;;;;;5.88;3.75;;;17.50;60.60;;;;;;5090989;28;20020;-78
2022/03/16 11:38:59;;;;;;;4.18;3.25;;;17.50;60.60;;;;;;5091295;28;20024;-78
2022/03/16 11:41:27;;;;;;;4.57;3.22;;;17.50;60.60;;;;;;5091239;28;20025;-77
2022/03/16 11:44:01;;;;;;;6.35;3.95;;;17.50;60.60;;;;;;5090149;28;20024;-77
2022/03/16 11:46:29;;;;;;;4.47;3.13;;;17.50;60.70;;;;;;5089537;28;20031;-78
2022/03/16 11:48:59;;;;;;;3.95;3.22;;;17.50;60.80;;;;;;5086845;28;20487;-77
2022/03/16 11:51:25;;;;;;;5.28;3.63;;;17.50;60.80;;;;;;5089867;28;20032;-77
2022/03/16 11:56:40;;;;;;;4.35;3.28;;;17.60;60.80;;;;;;5089199;28;20114;-77
2022/03/16 11:59:18;;;;;;;5.13;3.45;;;17.60;61.00;;;;;;5088961;28;20024;-76
2022/03/16 12:02:01;;;;;;;6.30;3.90;;;17.60;61.30;;;;;;5088781;28;20036;-78
2022/03/16 12:04:38;;;;;;;5.72;3.17;;;17.50;61.50;;;;;;5090040;28;20094;-76
2022/03/16 12:07:12;;;;;;;7.13;4.28;;;17.50;61.50;;;;;;5086250;28;20513;-76
2022/03/16 12:09:54;;;;;;;10.13;4.28;;;17.50;61.50;;;;;;5089360;28;20042;-76
2022/03/16 12:15:22;;;;;;;9.45;4.65;;;17.60;61.70;;;;;;5091446;28;21634;-76
2022/03/16 12:17:54;;;;;;;14.23;4.80;;;17.70;61.80;;;;;;5091998;28;20035;-77
2022/03/16 12:20:23;;;;;;;17.13;4.68;;;17.70;61.80;;;;;;5093815;28;20566;-76
2022/03/16 12:22:59;;;;;;;16.33;4.47;;;17.70;61.90;;;;;;5093461;28;20737;-76
2022/03/16 12:25:25;;;;;;;17.30;4.10;;;17.70;62.00;;;;;;5092932;28;20024;-76
2022/03/16 12:31:04;;;;;;;14.90;4.75;;;17.80;62.10;;;;;;5114061;28;20134;-78
2022/03/16 12:33:42;;;;;;;11.93;4.80;;;17.70;62.50;;;;;;5113839;28;20032;-77
2022/03/16 12:36:11;;;;;;;31.73;5.93;;;17.80;62.80;;;;;;5103614;28;20475;-77
2022/03/16 12:38:41;;;;;;;18.63;5.13;;;17.80;62.60;;;;;;5089329;28;20461;-77
2022/03/16 12:44:04;;;;;;;22.77;4.82;;;17.70;63.00;;;;;;5088380;28;20570;-78
2022/03/16 12:47:06;;;;;;;17.27;5.25;;;17.80;64.00;;;;;;5091905;28;20080;-77
2022/03/16 12:49:40;;;;;;;23.75;5.47;;;17.80;63.90;;;;;;5087258;28;20526;-78
2022/03/16 12:52:05;;;;;;;15.05;4.78;;;17.80;64.10;;;;;;5087296;28;20039;-78
2022/03/16 12:54:33;;;;;;;16.77;5.15;;;17.80;64.20;;;;;;5089030;28;20051;-78
2022/03/16 12:57:05;;;;;;;14.38;4.38;;;17.70;64.00;;;;;;5092181;28;20047;-78
2022/03/16 12:59:36;;;;;;;14.18;4.45;;;17.70;64.10;;;;;;5091509;28;20039;-77
2022/03/16 13:02:12;;;;;;;14.13;4.15;;;17.70;64.00;;;;;;5087544;28;20039;-77
2022/03/16 13:04:37;;;;;;;;;;;17.70;64.10;;;;;;5088350;28;20028;-77
2022/03/16 13:07:05;;;;;;;10.70;4.43;;;17.70;63.80;;;;;;5089894;28;20045;-78
2022/03/16 13:09:36;;;;;;;15.18;4.45;;;17.70;63.70;;;;;;5087775;28;20129;-78
2022/03/16 13:12:10;;;;;;;16.73;4.97;;;17.70;63.60;;;;;;5087319;28;20028;-78
2022/03/16 13:14:40;;;;;;;10.82;5.63;;;17.70;63.50;;;;;;5086711;28;20411;-78